sensor_id;sensor_type;location;lat;lon;timestamp;pressure;altitude;pressure_sealevel;temperature;humidity
42887;BME280;29032;56.028;92.904;2024-01-30T00:02:34;101094.84;;;-18.40;37.10
42887;BME280;29032;56.028;92.904;2024-01-30T00:07:38;101098.09;;;-18.26;36.14
42887;BME280;29032;56.028;92.904;2024-01-30T00:12:40;101101.69;;;-18.22;35.82
42887;BME280;29032;56.028;92.904;2024-01-30T00:17:42;101104.56;;;-18.36;36.07
42887;BME280;29032;56.028;92.904;2024-01-30T00:22:46;101107.78;;;-18.77;35.34
42887;BME280;29032;56.028;92.904;2024-01-30T00:27:48;101112.19;;;-19.42;37.26
42887;BME280;29032;56.028;92.904;2024-01-30T00:32:50;101116.84;;;-19.65;37.29
42887;BME280;29032;56.028;92.904;2024-01-30T00:37:53;101121.59;;;-19.44;36.88
42887;BME280;29032;56.028;92.904;2024-01-30T00:42:56;101127.56;;;-19.13;37.43
42887;BME280;29032;56.028;92.904;2024-01-30T00:47:58;101126.00;;;-18.79;37.00
42887;BME280;29032;56.028;92.904;2024-01-30T00:53:01;101126.75;;;-18.61;37.14
42887;BME280;29032;56.028;92.904;2024-01-30T00:58:04;101138.50;;;-18.36;36.15
42887;BME280;29032;56.028;92.904;2024-01-30T01:03:06;101138.31;;;-18.23;35.92
42887;BME280;29032;56.028;92.904;2024-01-30T01:08:10;101146.94;;;-18.17;35.88
42887;BME280;29032;56.028;92.904;2024-01-30T01:13:12;101153.56;;;-18.23;35.71
42887;BME280;29032;56.028;92.904;2024-01-30T01:18:14;101156.25;;;-18.32;35.02
42887;BME280;29032;56.028;92.904;2024-01-30T01:23:18;101149.66;;;-18.43;35.44
42887;BME280;29032;56.028;92.904;2024-01-30T01:28:20;101144.38;;;-18.60;34.90
42887;BME280;29032;56.028;92.904;2024-01-30T01:33:22;101149.09;;;-18.75;35.69
42887;BME280;29032;56.028;92.904;2024-01-30T01:38:26;101159.91;;;-18.71;34.93
42887;BME280;29032;56.028;92.904;2024-01-30T01:43:28;101160.38;;;-18.69;34.92
42887;BME280;29032;56.028;92.904;2024-01-30T01:48:30;101154.88;;;-18.64;35.88
42887;BME280;29032;56.028;92.904;2024-01-30T01:53:34;101158.00;;;-18.62;35.08
42887;BME280;29032;56.028;92.904;2024-01-30T01:58:36;101159.59;;;-18.78;34.87
42887;BME280;29032;56.028;92.904;2024-01-30T02:03:39;101169.31;;;-18.99;35.47
42887;BME280;29032;56.028;92.904;2024-01-30T02:08:43;101172.44;;;-19.15;36.25
42887;BME280;29032;56.028;92.904;2024-01-30T02:13:46;101176.69;;;-19.05;36.32
42887;BME280;29032;56.028;92.904;2024-01-30T02:18:48;101181.25;;;-18.88;36.06
42887;BME280;29032;56.028;92.904;2024-01-30T02:23:52;101184.38;;;-18.69;35.88
42887;BME280;29032;56.028;92.904;2024-01-30T02:28:56;101187.38;;;-18.53;36.07
42887;BME280;29032;56.028;92.904;2024-01-30T02:33:58;101189.44;;;-18.59;35.77
42887;BME280;29032;56.028;92.904;2024-01-30T02:39:02;101186.91;;;-18.38;36.02
42887;BME280;29032;56.028;92.904;2024-01-30T02:44:04;101186.88;;;-18.29;35.67
42887;BME280;29032;56.028;92.904;2024-01-30T02:49:07;101194.88;;;-18.12;36.21
42887;BME280;29032;56.028;92.904;2024-01-30T02:54:10;101196.25;;;-17.97;35.67
42887;BME280;29032;56.028;92.904;2024-01-30T02:59:12;101208.47;;;-17.87;35.24
42887;BME280;29032;56.028;92.904;2024-01-30T03:04:14;101189.44;;;-17.86;35.26
42887;BME280;29032;56.028;92.904;2024-01-30T03:09:18;101200.56;;;-17.75;35.49
42887;BME280;29032;56.028;92.904;2024-01-30T03:14:20;101205.41;;;-17.69;34.43
42887;BME280;29032;56.028;92.904;2024-01-30T03:19:22;101206.19;;;-17.68;34.76
42887;BME280;29032;56.028;92.904;2024-01-30T03:24:26;101207.72;;;-17.58;35.10
42887;BME280;29032;56.028;92.904;2024-01-30T03:29:28;101206.97;;;-17.68;35.09
42887;BME280;29032;56.028;92.904;2024-01-30T03:34:30;101212.16;;;-17.71;35.77
42887;BME280;29032;56.028;92.904;2024-01-30T03:39:34;101217.75;;;-17.85;35.73
42887;BME280;29032;56.028;92.904;2024-01-30T03:44:36;101207.25;;;-17.99;35.79
42887;BME280;29032;56.028;92.904;2024-01-30T03:49:38;101212.88;;;-17.92;35.82
42887;BME280;29032;56.028;92.904;2024-01-30T03:54:42;101217.22;;;-17.78;35.69
42887;BME280;29032;56.028;92.904;2024-01-30T03:59:44;101224.03;;;-17.81;35.51
42887;BME280;29032;56.028;92.904;2024-01-30T04:04:46;101223.50;;;-17.74;34.98
42887;BME280;29032;56.028;92.904;2024-01-30T04:09:51;101224.91;;;-17.68;34.90
42887;BME280;29032;56.028;92.904;2024-01-30T04:14:53;101235.13;;;-17.70;36.00
42887;BME280;29032;56.028;92.904;2024-01-30T04:19:56;101237.16;;;-17.67;35.48
42887;BME280;29032;56.028;92.904;2024-01-30T04:24:59;101225.69;;;-17.68;35.30
42887;BME280;29032;56.028;92.904;2024-01-30T04:30:01;101228.19;;;-17.63;35.30
42887;BME280;29032;56.028;92.904;2024-01-30T04:35:04;101217.50;;;-17.71;36.08
42887;BME280;29032;56.028;92.904;2024-01-30T04:40:09;101223.59;;;-17.53;35.93
42887;BME280;29032;56.028;92.904;2024-01-30T04:45:12;101234.06;;;-17.40;36.23
42887;BME280;29032;56.028;92.904;2024-01-30T04:50:14;101224.22;;;-17.48;35.47
42887;BME280;29032;56.028;92.904;2024-01-30T04:55:18;101240.81;;;-17.33;35.45
42887;BME280;29032;56.028;92.904;2024-01-30T05:00:20;101233.09;;;-17.26;36.11
42887;BME280;29032;56.028;92.904;2024-01-30T05:05:22;101245.63;;;-17.18;35.85
42887;BME280;29032;56.028;92.904;2024-01-30T05:10:26;101229.19;;;-17.08;35.44
42887;BME280;29032;56.028;92.904;2024-01-30T05:15:28;101232.06;;;-17.13;35.07
42887;BME280;29032;56.028;92.904;2024-01-30T05:20:31;101206.66;;;-17.66;35.39
42887;BME280;29032;56.028;92.904;2024-01-30T05:25:34;101220.69;;;-17.78;36.93
42887;BME280;29032;56.028;92.904;2024-01-30T05:30:36;101224.63;;;-17.75;36.97
42887;BME280;29032;56.028;92.904;2024-01-30T05:35:39;101228.84;;;-17.74;35.62
42887;BME280;29032;56.028;92.904;2024-01-30T05:40:42;101223.28;;;-17.90;36.70
42887;BME280;29032;56.028;92.904;2024-01-30T05:45:45;101220.31;;;-18.14;36.87
42887;BME280;29032;56.028;92.904;2024-01-30T05:50:47;101214.03;;;-18.10;37.23
42887;BME280;29032;56.028;92.904;2024-01-30T05:55:51;101212.88;;;-17.92;36.54
42887;BME280;29032;56.028;92.904;2024-01-30T06:00:53;101214.19;;;-17.98;36.31
42887;BME280;29032;56.028;92.904;2024-01-30T06:05:55;101206.94;;;-18.06;37.09
42887;BME280;29032;56.028;92.904;2024-01-30T06:10:59;101208.34;;;-18.00;38.32
42887;BME280;29032;56.028;92.904;2024-01-30T06:16:02;101215.56;;;-17.92;37.50
42887;BME280;29032;56.028;92.904;2024-01-30T06:21:05;101211.66;;;-18.03;37.88
42887;BME280;29032;56.028;92.904;2024-01-30T06:26:08;101205.06;;;-17.97;38.09
42887;BME280;29032;56.028;92.904;2024-01-30T06:31:10;101221.88;;;-17.96;37.83
42887;BME280;29032;56.028;92.904;2024-01-30T06:36:13;101215.31;;;-17.69;37.39
42887;BME280;29032;56.028;92.904;2024-01-30T06:41:16;101213.50;;;-17.48;36.78
42887;BME280;29032;56.028;92.904;2024-01-30T06:46:18;101207.59;;;-17.32;36.94
42887;BME280;29032;56.028;92.904;2024-01-30T06:51:20;101219.50;;;-17.21;37.76
42887;BME280;29032;56.028;92.904;2024-01-30T06:56:24;101218.47;;;-17.08;36.91
42887;BME280;29032;56.028;92.904;2024-01-30T07:01:28;101222.44;;;-17.14;36.29
42887;BME280;29032;56.028;92.904;2024-01-30T07:06:30;101217.31;;;-17.19;36.30
42887;BME280;29032;56.028;92.904;2024-01-30T07:11:34;101223.00;;;-17.00;36.91
42887;BME280;29032;56.028;92.904;2024-01-30T07:16:36;101215.06;;;-16.67;36.55
42887;BME280;29032;56.028;92.904;2024-01-30T07:21:38;101222.81;;;-16.32;35.52
42887;BME280;29032;56.028;92.904;2024-01-30T07:26:42;101220.06;;;-16.11;35.37
42887;BME280;29032;56.028;92.904;2024-01-30T07:31:44;101223.63;;;-15.86;35.62
42887;BME280;29032;56.028;92.904;2024-01-30T07:36:46;101236.88;;;-15.32;34.86
42887;BME280;29032;56.028;92.904;2024-01-30T07:41:50;101235.41;;;-15.05;34.78
42887;BME280;29032;56.028;92.904;2024-01-30T07:46:52;101233.63;;;-15.14;34.27
42887;BME280;29032;56.028;92.904;2024-01-30T07:51:54;101234.75;;;-15.27;34.58
42887;BME280;29032;56.028;92.904;2024-01-30T07:56:58;101234.16;;;-14.83;34.35
42887;BME280;29032;56.028;92.904;2024-01-30T08:02:00;101237.78;;;-14.51;33.97
42887;BME280;29032;56.028;92.904;2024-01-30T08:07:02;101241.38;;;-14.32;33.47
42887;BME280;29032;56.028;92.904;2024-01-30T08:12:07;101246.16;;;-14.41;33.57
42887;BME280;29032;56.028;92.904;2024-01-30T08:17:10;101252.47;;;-14.61;34.04
42887;BME280;29032;56.028;92.904;2024-01-30T08:22:12;101253.19;;;-14.89;34.36
42887;BME280;29032;56.028;92.904;2024-01-30T08:27:16;101245.25;;;-15.09;34.41
42887;BME280;29032;56.028;92.904;2024-01-30T08:32:18;101248.19;;;-15.15;34.52
42887;BME280;29032;56.028;92.904;2024-01-30T08:37:20;101253.78;;;-15.07;34.70
42887;BME280;29032;56.028;92.904;2024-01-30T08:42:24;101253.31;;;-15.22;34.47
42887;BME280;29032;56.028;92.904;2024-01-30T08:47:26;101259.78;;;-15.47;35.01
42887;BME280;29032;56.028;92.904;2024-01-30T08:52:28;101261.28;;;-15.83;34.70
42887;BME280;29032;56.028;92.904;2024-01-30T08:57:32;101259.81;;;-16.26;35.46
42887;BME280;29032;56.028;92.904;2024-01-30T09:02:34;101260.47;;;-16.29;35.53
42887;BME280;29032;56.028;92.904;2024-01-30T09:07:36;101261.69;;;-15.93;35.07
42887;BME280;29032;56.028;92.904;2024-01-30T09:12:40;101262.34;;;-15.63;34.69
42887;BME280;29032;56.028;92.904;2024-01-30T09:17:42;101263.75;;;-15.65;34.63
42887;BME280;29032;56.028;92.904;2024-01-30T09:22:45;101261.41;;;-15.67;34.14
42887;BME280;29032;56.028;92.904;2024-01-30T09:27:48;101261.03;;;-15.90;34.25
42887;BME280;29032;56.028;92.904;2024-01-30T09:32:50;101258.78;;;-16.00;34.42
42887;BME280;29032;56.028;92.904;2024-01-30T09:37:52;101264.63;;;-15.86;34.97
42887;BME280;29032;56.028;92.904;2024-01-30T09:42:57;101257.97;;;-16.01;34.38
42887;BME280;29032;56.028;92.904;2024-01-30T09:48:00;101259.84;;;-16.13;34.86
42887;BME280;29032;56.028;92.904;2024-01-30T09:53:04;101265.84;;;-16.16;35.63
42887;BME280;29032;56.028;92.904;2024-01-30T09:58:08;101265.50;;;-16.15;35.21
42887;BME280;29032;56.028;92.904;2024-01-30T10:03:11;101256.97;;;-15.96;34.98
42887;BME280;29032;56.028;92.904;2024-01-30T10:08:13;101271.56;;;-15.85;34.75
42887;BME280;29032;56.028;92.904;2024-01-30T10:13:16;101269.34;;;-15.71;34.65
42887;BME280;29032;56.028;92.904;2024-01-30T10:18:19;101272.47;;;-15.69;34.38
42887;BME280;29032;56.028;92.904;2024-01-30T10:23:21;101266.91;;;-15.63;34.55
42887;BME280;29032;56.028;92.904;2024-01-30T10:28:27;101253.50;;;-15.63;34.38
42887;BME280;29032;56.028;92.904;2024-01-30T10:33:29;101274.97;;;-15.63;34.89
42887;BME280;29032;56.028;92.904;2024-01-30T10:38:32;101281.66;;;-15.70;35.28
42887;BME280;29032;56.028;92.904;2024-01-30T10:43:40;101278.88;;;-15.61;34.74
42887;BME280;29032;56.028;92.904;2024-01-30T10:48:43;101271.16;;;-15.62;35.15
42887;BME280;29032;56.028;92.904;2024-01-30T10:53:46;101280.09;;;-15.71;35.10
42887;BME280;29032;56.028;92.904;2024-01-30T10:58:52;101280.88;;;-15.70;35.24
42887;BME280;29032;56.028;92.904;2024-01-30T11:03:56;101282.78;;;-15.71;35.63
42887;BME280;29032;56.028;92.904;2024-01-30T11:09:02;101285.91;;;-15.69;34.55
42887;BME280;29032;56.028;92.904;2024-01-30T11:14:06;101289.03;;;-16.00;35.01
42887;BME280;29032;56.028;92.904;2024-01-30T11:19:11;101281.47;;;-16.18;35.08
42887;BME280;29032;56.028;92.904;2024-01-30T11:24:14;101305.41;;;-16.13;35.00
42887;BME280;29032;56.028;92.904;2024-01-30T11:29:18;101303.91;;;-16.23;36.33
42887;BME280;29032;56.028;92.904;2024-01-30T11:34:21;101299.78;;;-16.62;36.23
42887;BME280;29032;56.028;92.904;2024-01-30T11:39:23;101295.22;;;-16.62;36.36
42887;BME280;29032;56.028;92.904;2024-01-30T11:44:27;101296.88;;;-16.28;36.10
42887;BME280;29032;56.028;92.904;2024-01-30T11:49:30;101302.25;;;-16.15;35.40
42887;BME280;29032;56.028;92.904;2024-01-30T11:54:32;101302.94;;;-16.39;35.67
42887;BME280;29032;56.028;92.904;2024-01-30T11:59:36;101302.34;;;-16.45;36.13
42887;BME280;29032;56.028;92.904;2024-01-30T12:04:38;101293.28;;;-16.32;35.99
42887;BME280;29032;56.028;92.904;2024-01-30T12:09:40;101295.44;;;-16.25;35.51
42887;BME280;29032;56.028;92.904;2024-01-30T12:14:44;101297.56;;;-16.18;35.66
42887;BME280;29032;56.028;92.904;2024-01-30T12:19:46;101294.53;;;-16.17;35.58
42887;BME280;29032;56.028;92.904;2024-01-30T12:24:48;101297.91;;;-16.08;35.47
42887;BME280;29032;56.028;92.904;2024-01-30T12:29:57;101290.97;;;-16.21;35.63
42887;BME280;29032;56.028;92.904;2024-01-30T12:34:59;101288.25;;;-16.54;35.70
42887;BME280;29032;56.028;92.904;2024-01-30T12:40:02;101281.69;;;-16.95;36.49
42887;BME280;29032;56.028;92.904;2024-01-30T12:45:06;101281.31;;;-17.14;36.44
42887;BME280;29032;56.028;92.904;2024-01-30T12:50:09;101275.59;;;-17.33;37.84
42887;BME280;29032;56.028;92.904;2024-01-30T12:55:11;101269.59;;;-17.30;36.85
42887;BME280;29032;56.028;92.904;2024-01-30T13:00:15;101271.72;;;-17.15;37.60
42887;BME280;29032;56.028;92.904;2024-01-30T13:05:17;101265.38;;;-17.02;36.79
42887;BME280;29032;56.028;92.904;2024-01-30T13:10:19;101266.84;;;-16.84;36.39
42887;BME280;29032;56.028;92.904;2024-01-30T13:15:23;101270.13;;;-16.78;35.76
42887;BME280;29032;56.028;92.904;2024-01-30T13:20:25;101267.91;;;-16.76;35.88
42887;BME280;29032;56.028;92.904;2024-01-30T13:25:27;101262.94;;;-16.65;35.92
42887;BME280;29032;56.028;92.904;2024-01-30T13:30:31;101262.31;;;-16.62;34.95
42887;BME280;29032;56.028;92.904;2024-01-30T13:35:33;101262.41;;;-16.80;35.57
42887;BME280;29032;56.028;92.904;2024-01-30T13:40:35;101259.50;;;-16.95;35.35
42887;BME280;29032;56.028;92.904;2024-01-30T13:45:39;101258.72;;;-16.96;35.74
42887;BME280;29032;56.028;92.904;2024-01-30T13:50:41;101248.34;;;-16.97;35.15
42887;BME280;29032;56.028;92.904;2024-01-30T13:55:43;101252.94;;;-17.07;35.43
42887;BME280;29032;56.028;92.904;2024-01-30T14:00:47;101259.56;;;-17.04;35.29
42887;BME280;29032;56.028;92.904;2024-01-30T14:05:49;101249.59;;;-16.95;34.88
42887;BME280;29032;56.028;92.904;2024-01-30T14:10:52;101260.44;;;-16.91;35.44
42887;BME280;29032;56.028;92.904;2024-01-30T14:15:56;101253.66;;;-16.89;34.28
42887;BME280;29032;56.028;92.904;2024-01-30T14:20:58;101249.03;;;-17.09;34.53
42887;BME280;29032;56.028;92.904;2024-01-30T14:26:00;101249.47;;;-17.07;34.97
42887;BME280;29032;56.028;92.904;2024-01-30T14:31:04;101239.72;;;-17.03;34.06
42887;BME280;29032;56.028;92.904;2024-01-30T14:36:07;101247.63;;;-17.15;34.63
42887;BME280;29032;56.028;92.904;2024-01-30T14:41:09;101237.88;;;-17.41;34.49
42887;BME280;29032;56.028;92.904;2024-01-30T14:46:13;101235.91;;;-17.61;34.41
42887;BME280;29032;56.028;92.904;2024-01-30T14:51:15;101246.75;;;-17.66;34.97
42887;BME280;29032;56.028;92.904;2024-01-30T14:56:17;101247.47;;;-17.86;34.46
42887;BME280;29032;56.028;92.904;2024-01-30T15:01:22;101241.69;;;-17.97;35.40
42887;BME280;29032;56.028;92.904;2024-01-30T15:06:24;101240.09;;;-17.98;35.24
42887;BME280;29032;56.028;92.904;2024-01-30T15:11:26;101242.69;;;-17.72;34.27
42887;BME280;29032;56.028;92.904;2024-01-30T15:16:30;101241.63;;;-17.42;33.90
42887;BME280;29032;56.028;92.904;2024-01-30T15:21:32;101233.72;;;-17.29;33.83
42887;BME280;29032;56.028;92.904;2024-01-30T15:26:34;101230.13;;;-17.42;33.80
42887;BME280;29032;56.028;92.904;2024-01-30T15:31:40;101234.22;;;-17.36;33.18
42887;BME280;29032;56.028;92.904;2024-01-30T15:36:43;101240.34;;;-17.36;33.33
42887;BME280;29032;56.028;92.904;2024-01-30T15:41:45;101230.47;;;-17.44;33.64
42887;BME280;29032;56.028;92.904;2024-01-30T15:46:49;101229.44;;;-17.60;33.33
42887;BME280;29032;56.028;92.904;2024-01-30T15:51:51;101231.78;;;-17.97;33.21
42887;BME280;29032;56.028;92.904;2024-01-30T15:56:53;101238.69;;;-18.13;34.27
42887;BME280;29032;56.028;92.904;2024-01-30T16:01:57;101231.34;;;-18.25;33.95
42887;BME280;29032;56.028;92.904;2024-01-30T16:06:59;101230.56;;;-18.42;33.68
42887;BME280;29032;56.028;92.904;2024-01-30T16:12:01;101228.53;;;-18.45;34.34
42887;BME280;29032;56.028;92.904;2024-01-30T16:17:05;101225.88;;;-18.45;34.44
42887;BME280;29032;56.028;92.904;2024-01-30T16:22:07;101228.84;;;-18.47;35.00
42887;BME280;29032;56.028;92.904;2024-01-30T16:27:09;101226.97;;;-18.47;34.36
42887;BME280;29032;56.028;92.904;2024-01-30T16:32:13;101216.09;;;-18.41;33.68
42887;BME280;29032;56.028;92.904;2024-01-30T16:37:15;101219.56;;;-18.58;33.67
42887;BME280;29032;56.028;92.904;2024-01-30T16:42:17;101226.16;;;-18.73;34.62
42887;BME280;29032;56.028;92.904;2024-01-30T16:47:21;101223.63;;;-18.78;34.13
42887;BME280;29032;56.028;92.904;2024-01-30T16:52:23;101220.97;;;-18.87;34.17
42887;BME280;29032;56.028;92.904;2024-01-30T16:57:25;101216.56;;;-19.00;34.86
42887;BME280;29032;56.028;92.904;2024-01-30T17:02:29;101230.03;;;-19.05;34.39
42887;BME280;29032;56.028;92.904;2024-01-30T17:07:31;101233.97;;;-19.03;34.05
42887;BME280;29032;56.028;92.904;2024-01-30T17:12:33;101217.97;;;-18.94;33.43
42887;BME280;29032;56.028;92.904;2024-01-30T17:17:37;101214.06;;;-18.88;33.73
42887;BME280;29032;56.028;92.904;2024-01-30T17:22:39;101208.72;;;-18.96;34.36
42887;BME280;29032;56.028;92.904;2024-01-30T17:27:41;101210.88;;;-19.07;33.55
42887;BME280;29032;56.028;92.904;2024-01-30T17:32:45;101206.66;;;-19.17;33.70
42887;BME280;29032;56.028;92.904;2024-01-30T17:37:47;101208.03;;;-19.28;33.65
42887;BME280;29032;56.028;92.904;2024-01-30T17:42:49;101213.06;;;-19.26;34.45
42887;BME280;29032;56.028;92.904;2024-01-30T17:47:53;101215.59;;;-19.21;34.26
42887;BME280;29032;56.028;92.904;2024-01-30T17:52:55;101213.84;;;-19.26;34.18
42887;BME280;29032;56.028;92.904;2024-01-30T17:57:57;101216.84;;;-19.27;34.20
42887;BME280;29032;56.028;92.904;2024-01-30T18:03:01;101216.69;;;-19.31;33.70
42887;BME280;29032;56.028;92.904;2024-01-30T18:08:04;101213.03;;;-19.35;33.37
42887;BME280;29032;56.028;92.904;2024-01-30T18:13:06;101211.16;;;-19.35;34.16
42887;BME280;29032;56.028;92.904;2024-01-30T18:18:10;101213.50;;;-19.33;34.12
42887;BME280;29032;56.028;92.904;2024-01-30T18:23:12;101213.03;;;-19.44;34.10
42887;BME280;29032;56.028;92.904;2024-01-30T18:28:14;101210.34;;;-19.52;33.70
42887;BME280;29032;56.028;92.904;2024-01-30T18:33:18;101210.16;;;-19.56;34.20
42887;BME280;29032;56.028;92.904;2024-01-30T18:38:20;101210.59;;;-19.63;33.33
42887;BME280;29032;56.028;92.904;2024-01-30T18:43:22;101205.22;;;-19.71;34.16
42887;BME280;29032;56.028;92.904;2024-01-30T18:48:26;101205.84;;;-19.74;34.44
42887;BME280;29032;56.028;92.904;2024-01-30T18:53:28;101204.56;;;-19.77;33.47
42887;BME280;29032;56.028;92.904;2024-01-30T18:58:30;101204.94;;;-19.70;34.18
42887;BME280;29032;56.028;92.904;2024-01-30T19:03:34;101201.81;;;-19.63;34.45
42887;BME280;29032;56.028;92.904;2024-01-30T19:08:37;101212.00;;;-19.65;33.71
42887;BME280;29032;56.028;92.904;2024-01-30T19:13:40;101217.00;;;-19.72;33.13
42887;BME280;29032;56.028;92.904;2024-01-30T19:18:43;101219.34;;;-19.71;33.97
42887;BME280;29032;56.028;92.904;2024-01-30T19:23:45;101212.09;;;-19.79;33.73
42887;BME280;29032;56.028;92.904;2024-01-30T19:28:48;101220.50;;;-19.94;33.90
42887;BME280;29032;56.028;92.904;2024-01-30T19:33:54;101216.03;;;-20.07;33.22
42887;BME280;29032;56.028;92.904;2024-01-30T19:38:56;101211.59;;;-20.12;33.87
42887;BME280;29032;56.028;92.904;2024-01-30T19:43:59;101208.78;;;-20.16;34.11
42887;BME280;29032;56.028;92.904;2024-01-30T19:49:02;101212.50;;;-20.17;33.94
42887;BME280;29032;56.028;92.904;2024-01-30T19:54:04;101213.94;;;-20.10;33.57
42887;BME280;29032;56.028;92.904;2024-01-30T19:59:06;101207.53;;;-20.09;34.01
42887;BME280;29032;56.028;92.904;2024-01-30T20:04:10;101196.78;;;-20.27;33.85
42887;BME280;29032;56.028;92.904;2024-01-30T20:09:12;101200.19;;;-20.35;33.95
42887;BME280;29032;56.028;92.904;2024-01-30T20:14:15;101201.56;;;-20.37;34.23
42887;BME280;29032;56.028;92.904;2024-01-30T20:19:18;101199.88;;;-20.33;34.34
42887;BME280;29032;56.028;92.904;2024-01-30T20:24:20;101198.00;;;-20.33;33.76
42887;BME280;29032;56.028;92.904;2024-01-30T20:29:23;101195.81;;;-20.31;33.16
42887;BME280;29032;56.028;92.904;2024-01-30T20:34:26;101192.50;;;-20.36;34.11
42887;BME280;29032;56.028;92.904;2024-01-30T20:39:28;101197.63;;;-20.40;33.21
42887;BME280;29032;56.028;92.904;2024-01-30T20:44:31;101185.72;;;-20.51;34.63
42887;BME280;29032;56.028;92.904;2024-01-30T20:49:34;101198.13;;;-20.60;34.18
42887;BME280;29032;56.028;92.904;2024-01-30T20:54:36;101179.13;;;-20.90;34.49
42887;BME280;29032;56.028;92.904;2024-01-30T20:59:39;101181.13;;;-21.09;34.26
42887;BME280;29032;56.028;92.904;2024-01-30T21:04:42;101179.00;;;-21.07;35.19
42887;BME280;29032;56.028;92.904;2024-01-30T21:09:44;101168.34;;;-21.07;35.20
42887;BME280;29032;56.028;92.904;2024-01-30T21:14:47;101167.44;;;-21.03;35.30
42887;BME280;29032;56.028;92.904;2024-01-30T21:19:50;101164.94;;;-20.85;35.00
42887;BME280;29032;56.028;92.904;2024-01-30T21:24:52;101164.75;;;-20.66;33.70
42887;BME280;29032;56.028;92.904;2024-01-30T21:29:55;101168.41;;;-20.62;33.87
42887;BME280;29032;56.028;92.904;2024-01-30T21:34:58;101158.38;;;-20.65;34.81
42887;BME280;29032;56.028;92.904;2024-01-30T21:40:01;101154.63;;;-20.64;34.17
42887;BME280;29032;56.028;92.904;2024-01-30T21:45:04;101161.13;;;-20.71;34.80
42887;BME280;29032;56.028;92.904;2024-01-30T21:50:08;101167.19;;;-20.56;34.50
42887;BME280;29032;56.028;92.904;2024-01-30T21:55:11;101153.47;;;-20.50;34.42
42887;BME280;29032;56.028;92.904;2024-01-30T22:00:14;101169.81;;;-20.34;34.25
42887;BME280;29032;56.028;92.904;2024-01-30T22:05:17;101164.91;;;-20.41;34.28
42887;BME280;29032;56.028;92.904;2024-01-30T22:10:20;101168.41;;;-20.62;34.03
42887;BME280;29032;56.028;92.904;2024-01-30T22:15:22;101160.34;;;-20.71;33.89
42887;BME280;29032;56.028;92.904;2024-01-30T22:20:26;101160.00;;;-20.78;35.01
42887;BME280;29032;56.028;92.904;2024-01-30T22:25:28;101155.19;;;-20.67;34.63
42887;BME280;29032;56.028;92.904;2024-01-30T22:30:30;101158.13;;;-20.55;33.69
42887;BME280;29032;56.028;92.904;2024-01-30T22:35:34;101145.94;;;-20.48;34.38
42887;BME280;29032;56.028;92.904;2024-01-30T22:40:36;101147.19;;;-20.45;33.73
42887;BME280;29032;56.028;92.904;2024-01-30T22:45:38;101150.34;;;-20.43;33.25
42887;BME280;29032;56.028;92.904;2024-01-30T22:50:42;101135.94;;;-20.42;33.63
42887;BME280;29032;56.028;92.904;2024-01-30T22:55:44;101125.75;;;-20.49;33.06
42887;BME280;29032;56.028;92.904;2024-01-30T23:00:46;101118.19;;;-20.55;33.72
42887;BME280;29032;56.028;92.904;2024-01-30T23:05:50;101112.63;;;-20.67;33.65
42887;BME280;29032;56.028;92.904;2024-01-30T23:10:52;101125.00;;;-20.72;34.34
42887;BME280;29032;56.028;92.904;2024-01-30T23:15:54;101121.28;;;-20.84;34.99
42887;BME280;29032;56.028;92.904;2024-01-30T23:20:58;101117.06;;;-20.85;34.76
42887;BME280;29032;56.028;92.904;2024-01-30T23:26:00;101105.13;;;-20.88;35.15
42887;BME280;29032;56.028;92.904;2024-01-30T23:31:02;101099.66;;;-20.91;35.17
42887;BME280;29032;56.028;92.904;2024-01-30T23:36:06;101107.25;;;-20.99;35.17
42887;BME280;29032;56.028;92.904;2024-01-30T23:41:09;101098.81;;;-21.01;34.82
42887;BME280;29032;56.028;92.904;2024-01-30T23:46:11;101114.47;;;-20.77;34.48
42887;BME280;29032;56.028;92.904;2024-01-30T23:51:14;101108.53;;;-20.51;34.12
42887;BME280;29032;56.028;92.904;2024-01-30T23:56:16;101107.44;;;-20.50;34.35
